Anastasia Island, Florida
Current Conditions -  °F | °C
As of 12:58 PM on Thursday 30 Oct 2014 (Local Time) from KSGJ Reporting Station
Broken Clouds Broken Clouds  
Wind Chill: 24°   Ceiling: 3000
Heat Index: 24°   Visibility: 10mi
Dew Point: 21°   Wind: 7mph
Humidity: 79%   Direction: 70°ENE
Pressure: 29.97"   Gusts: NA
Location:  29.8475°N, 81.2787°W
Report Text: KSGJ 301658Z 07006KT 10SM SCT010 BKN030 24/21 A2997 RMK AO2 SLP147 T02440206
Loading
Personal Weather Stations






























Interactive Weather Map
Tropical Storm Tracking
New forecast layout! Learn more

10-Day Weather Forecast

Advertisements
Track Severe Weather on mobile